To NAV CANADA Home Page Login to a new session Search on AWWS site Disclaimer Vers la page française équivalente Tips FAQ What's new on the site To the Forecasts and Observations / NOTAM section To "File a Flight Plan" website Publications and other links Update of the User's profile FIC Telephone Numbers My Weather Data Folder Route Weather Data Regional Weather Data Local Weather Data To the Forecasts and Observations / NOTAM section
Request Generated 11/13/2018 at 19:02:56 UTC . Weather information available at that time is displayed.

METAR/TAF

NANAIMO/BC    

METAR CYCD 131900Z 20003KT 160V230 30SM FEW050 BKN120 OVC250 08/03 A3032 RMK SC1AC4CI3 SLP271=
METAR CYCD 131800Z VRB02KT 30SM BKN140 OVC220 05/03 A3033 RMK AC5CI3 SLP273=
METAR CYCD 131700Z 09003KT 010V100 30SM SCT160 OVC240 02/01 A3033 RMK AC4CI4 SLP273=

TAF CYCD 131738Z 1318/1405 VRB03KT P6SM SCT160 OVC240
FM132000 12008KT P6SM SCT040 OVC120 TEMPO 1320/1322 P6SM -RA
SCT020 OVC040
FM132200 12006KT P6SM -RA SCT020 OVC040 TEMPO 1322/1405 6SM -RA
BR BKN020 OVC040
RMK NXT FCST BY 140000Z=
Your time UTC time
Weather data provided by Environment Canada and NAV CANADA